createdAt,value
2017-08-07T00:01:26.794Z,50.55
2017-08-07T00:03:54.367Z,50.67
2017-08-07T00:06:21.992Z,50.58
2017-08-07T00:08:49.635Z,50.85
2017-08-07T00:11:17.187Z,50.74
2017-08-07T00:13:44.767Z,50.92
2017-08-07T00:16:12.345Z,50.91
2017-08-07T00:18:39.913Z,51.11
2017-08-07T00:21:07.447Z,50.75
2017-08-07T00:23:35.962Z,50.50
2017-08-07T00:26:03.622Z,50.54
2017-08-07T00:28:31.202Z,50.41
2017-08-07T00:30:58.842Z,50.53
2017-08-07T00:33:26.638Z,50.54
2017-08-07T00:35:54.178Z,50.48
2017-08-07T00:38:21.807Z,50.33
2017-08-07T00:40:49.355Z,50.31
2017-08-07T00:43:18.220Z,50.27
2017-08-07T00:45:47.139Z,50.55
2017-08-07T00:48:14.738Z,50.52
2017-08-07T00:50:42.611Z,50.45
2017-08-07T00:53:10.216Z,50.54
2017-08-07T00:55:37.805Z,50.63
2017-08-07T00:58:05.637Z,50.74
2017-08-07T01:00:33.580Z,50.63
2017-08-07T01:03:01.410Z,50.91
2017-08-07T01:05:29.031Z,51.18
2017-08-07T01:07:56.691Z,51.31
2017-08-07T01:10:24.303Z,51.33
2017-08-07T01:12:52.076Z,51.00
2017-08-07T01:15:19.687Z,51.46
2017-08-07T01:17:47.258Z,51.85
2017-08-07T01:20:15.762Z,51.81
2017-08-07T01:22:43.373Z,52.23
2017-08-07T01:25:11.051Z,52.46
2017-08-07T01:27:38.634Z,52.39
2017-08-07T01:30:07.025Z,52.37
2017-08-07T01:32:34.683Z,52.10
2017-08-07T01:35:02.285Z,52.24
2017-08-07T01:37:29.893Z,52.60
2017-08-07T01:39:57.483Z,52.88
2017-08-07T01:42:25.061Z,53.50
2017-08-07T01:44:52.676Z,53.52
2017-08-07T01:47:20.300Z,53.60
2017-08-07T01:49:47.929Z,53.41
2017-08-07T01:52:15.558Z,53.30
2017-08-07T01:54:43.199Z,53.43
2017-08-07T01:57:10.867Z,53.03
2017-08-07T01:59:38.462Z,53.26
2017-08-07T02:02:06.106Z,53.23
2017-08-07T02:04:33.681Z,53.02
2017-08-07T02:07:01.241Z,52.82
2017-08-07T02:09:28.871Z,52.85
2017-08-07T02:11:56.421Z,52.35
2017-08-07T02:14:23.982Z,52.59
2017-08-07T02:16:51.581Z,52.33
2017-08-07T02:19:19.135Z,52.32
2017-08-07T02:21:46.746Z,51.94
2017-08-07T02:24:14.388Z,51.94
2017-08-07T02:26:41.963Z,51.88
2017-08-07T02:29:09.583Z,51.53
2017-08-07T02:31:37.204Z,51.50
2017-08-07T02:34:04.794Z,51.91
2017-08-07T02:36:32.389Z,51.71
2017-08-07T02:39:00.028Z,52.24
2017-08-07T02:41:27.643Z,52.36
2017-08-07T02:43:55.323Z,52.40
2017-08-07T02:46:22.917Z,52.62
2017-08-07T02:48:50.527Z,52.53
2017-08-07T02:51:18.292Z,52.90
2017-08-07T02:53:46.111Z,53.11
2017-08-07T02:56:13.751Z,53.20
2017-08-07T02:58:41.584Z,52.86
2017-08-07T03:01:09.191Z,52.58
2017-08-07T03:03:36.758Z,53.01
2017-08-07T03:06:04.432Z,53.18
2017-08-07T03:08:32.034Z,53.30
2017-08-07T03:10:59.589Z,53.17
2017-08-07T03:13:27.167Z,52.83
2017-08-07T03:15:54.781Z,53.34
2017-08-07T03:18:22.530Z,53.96
2017-08-07T03:20:50.281Z,53.50
2017-08-07T03:23:18.067Z,53.50
2017-08-07T03:25:45.696Z,53.58
2017-08-07T03:28:13.294Z,53.46
2017-08-07T03:30:40.858Z,53.45
2017-08-07T03:33:08.464Z,53.64
2017-08-07T03:35:36.237Z,54.01
2017-08-07T03:38:03.859Z,53.72
2017-08-07T03:40:31.434Z,53.31
2017-08-07T03:42:59.028Z,53.72
2017-08-07T03:45:26.627Z,53.47
2017-08-07T03:47:54.256Z,53.46
2017-08-07T03:50:22.016Z,53.62
2017-08-07T03:52:49.617Z,54.12
2017-08-07T03:55:17.269Z,54.16
2017-08-07T03:57:44.866Z,54.23
2017-08-07T04:00:12.543Z,53.89
2017-08-07T04:02:40.306Z,53.88
2017-08-07T04:05:08.096Z,53.96
2017-08-07T04:07:35.730Z,53.41
2017-08-07T04:10:03.306Z,53.25
2017-08-07T04:12:30.877Z,53.26
2017-08-07T04:14:58.458Z,53.17
2017-08-07T04:17:27.842Z,52.45
2017-08-07T04:19:55.403Z,52.38
2017-08-07T04:22:23.055Z,52.71
2017-08-07T04:24:50.637Z,52.33
2017-08-07T04:27:18.210Z,52.43
2017-08-07T04:29:45.823Z,52.18
2017-08-07T04:32:13.700Z,54.77
2017-08-07T04:34:41.787Z,53.41
2017-08-07T04:37:09.365Z,54.04
2017-08-07T04:39:36.935Z,52.34
2017-08-07T04:42:04.507Z,51.96
2017-08-07T04:44:32.105Z,53.30
2017-08-07T04:46:59.768Z,53.81
2017-08-07T04:49:27.327Z,53.20
2017-08-07T04:51:54.891Z,52.37
2017-08-07T04:54:22.453Z,52.84
2017-08-07T04:56:52.885Z,52.87
2017-08-07T04:59:20.647Z,53.20
2017-08-07T05:01:48.246Z,52.20
2017-08-07T05:04:15.815Z,51.29
2017-08-07T05:06:43.422Z,52.90
2017-08-07T05:09:11.026Z,49.87
2017-08-07T05:11:38.587Z,50.07
2017-08-07T05:14:06.215Z,50.37
2017-08-07T05:16:33.793Z,50.29
2017-08-07T05:19:01.415Z,50.42
2017-08-07T05:21:29.003Z,47.80
2017-08-07T05:23:56.637Z,48.51
2017-08-07T05:26:24.391Z,47.84
2017-08-07T05:28:52.175Z,47.14
2017-08-07T05:31:19.827Z,48.11
2017-08-07T05:33:47.428Z,48.63
2017-08-07T05:36:15.223Z,48.45
2017-08-07T05:38:42.821Z,48.88
2017-08-07T05:41:10.411Z,48.21
2017-08-07T05:43:38.166Z,48.32
2017-08-07T05:46:05.832Z,48.17
2017-08-07T05:48:33.399Z,46.60
2017-08-07T05:51:01.037Z,47.61
2017-08-07T05:53:28.637Z,46.38
2017-08-07T05:55:56.201Z,45.80
2017-08-07T05:58:23.965Z,44.38
2017-08-07T06:00:51.565Z,44.28
2017-08-07T06:03:19.352Z,44.08
2017-08-07T06:05:46.931Z,43.80
2017-08-07T06:08:14.490Z,43.21
2017-08-07T06:10:42.093Z,43.00
2017-08-07T06:13:09.842Z,42.52
2017-08-07T06:15:37.454Z,40.97
2017-08-07T06:18:05.274Z,39.58
2017-08-07T06:20:32.893Z,39.57
2017-08-07T06:23:00.549Z,41.51
2017-08-07T06:25:29.228Z,41.60
2017-08-07T06:27:56.775Z,41.57
2017-08-07T06:30:24.482Z,40.44
2017-08-07T06:32:52.100Z,40.29
2017-08-07T06:35:19.748Z,37.63
2017-08-07T06:37:47.339Z,37.99
2017-08-07T06:40:20.498Z,38.32
2017-08-07T06:42:48.135Z,37.31
2017-08-07T06:45:15.718Z,38.67
2017-08-07T06:47:43.299Z,37.61
2017-08-07T06:50:10.876Z,38.26
2017-08-07T06:52:38.792Z,38.30
2017-08-07T06:55:06.338Z,38.40
2017-08-07T06:57:33.966Z,37.27
2017-08-07T07:00:01.559Z,36.91
2017-08-07T07:02:29.130Z,35.78
2017-08-07T07:04:56.703Z,35.87
2017-08-07T07:07:24.359Z,34.21
2017-08-07T07:09:51.999Z,33.78
2017-08-07T07:12:20.005Z,34.78
2017-08-07T07:14:47.555Z,34.82
2017-08-07T07:17:15.164Z,35.49
2017-08-07T07:19:43.347Z,34.80
2017-08-07T07:22:10.895Z,35.46
2017-08-07T07:24:38.497Z,34.98
2017-08-07T07:27:06.085Z,33.95
2017-08-07T07:29:34.646Z,34.24
2017-08-07T07:32:02.340Z,33.03
2017-08-07T07:34:30.134Z,30.63
2017-08-07T07:36:58.017Z,30.81
2017-08-07T07:39:25.610Z,31.31
2017-08-07T07:41:53.195Z,31.87
2017-08-07T07:44:20.862Z,30.97
2017-08-07T07:46:49.111Z,31.19
2017-08-07T07:49:16.864Z,30.47
2017-08-07T07:51:44.503Z,29.37
2017-08-07T07:54:12.365Z,30.11
2017-08-07T07:56:39.942Z,29.97
2017-08-07T07:59:07.558Z,29.94
2017-08-07T08:01:35.185Z,29.80
2017-08-07T08:04:02.720Z,28.83
2017-08-07T08:06:30.366Z,29.74
2017-08-07T08:08:58.024Z,28.50
2017-08-07T08:11:25.662Z,29.40
2017-08-07T08:13:53.565Z,30.62
2017-08-07T08:16:22.152Z,29.85
2017-08-07T08:18:49.734Z,30.23
2017-08-07T08:21:17.310Z,30.48
2017-08-07T08:23:44.989Z,30.01
2017-08-07T08:26:12.703Z,30.19
2017-08-07T08:28:40.249Z,30.42
2017-08-07T08:31:07.865Z,29.29
2017-08-07T08:33:35.472Z,29.48
2017-08-07T08:36:03.050Z,28.66
2017-08-07T08:38:30.725Z,28.86
2017-08-07T08:40:58.282Z,28.07
2017-08-07T08:43:26.308Z,28.10
2017-08-07T08:45:54.782Z,27.06
2017-08-07T08:48:22.357Z,27.24
2017-08-07T08:50:50.632Z,26.24
2017-08-07T08:53:18.276Z,27.00
2017-08-07T08:55:46.791Z,28.27
2017-08-07T08:58:14.410Z,28.14
2017-08-07T09:00:51.146Z,28.27
2017-08-07T09:03:18.922Z,28.02
2017-08-07T09:05:47.142Z,27.55
2017-08-07T09:08:14.735Z,27.44
2017-08-07T09:10:42.406Z,27.25
2017-08-07T09:13:10.007Z,28.13
2017-08-07T09:15:37.600Z,27.82
2017-08-07T09:18:06.646Z,27.46
2017-08-07T09:20:34.803Z,27.33
2017-08-07T09:23:02.798Z,27.07
2017-08-07T09:25:33.503Z,27.12
2017-08-07T09:28:02.427Z,26.72
2017-08-07T09:30:30.139Z,26.08
2017-08-07T09:32:58.676Z,26.22
2017-08-07T09:35:26.223Z,26.60
2017-08-07T09:37:53.816Z,26.82
2017-08-07T09:40:21.367Z,27.06
2017-08-07T09:42:48.915Z,27.32
2017-08-07T09:45:19.095Z,27.37
2017-08-07T09:47:46.699Z,27.03
2017-08-07T09:50:14.449Z,27.09
2017-08-07T09:52:42.009Z,27.17
2017-08-07T09:55:09.818Z,27.18
2017-08-07T09:57:37.427Z,27.01
2017-08-07T10:00:08.159Z,27.29
2017-08-07T10:02:35.709Z,26.58
2017-08-07T10:05:03.289Z,26.87
2017-08-07T10:07:30.875Z,26.31
2017-08-07T10:09:58.468Z,26.14
2017-08-07T10:12:26.249Z,26.06
2017-08-07T10:14:53.826Z,25.89
2017-08-07T10:17:21.417Z,25.76
2017-08-07T10:19:49.781Z,26.05
2017-08-07T10:22:17.409Z,26.05
2017-08-07T10:24:45.064Z,25.90
2017-08-07T10:27:13.890Z,26.07
2017-08-07T10:29:41.483Z,26.02
2017-08-07T10:32:09.160Z,26.50
2017-08-07T10:34:36.872Z,26.08
2017-08-07T10:37:04.656Z,26.48
2017-08-07T10:39:32.335Z,26.51
2017-08-07T10:42:00.748Z,26.77
2017-08-07T10:44:30.191Z,26.37
2017-08-07T10:46:57.876Z,26.31
2017-08-07T10:49:25.457Z,25.93
2017-08-07T10:51:53.022Z,25.86
2017-08-07T10:54:20.868Z,26.05
2017-08-07T10:56:48.766Z,25.99
2017-08-07T10:59:16.347Z,25.99
2017-08-07T11:01:43.951Z,25.47
2017-08-07T11:04:11.772Z,25.09
2017-08-07T11:06:39.569Z,25.35
2017-08-07T11:09:07.229Z,25.52
2017-08-07T11:11:36.714Z,25.29
2017-08-07T11:14:05.242Z,25.19
2017-08-07T11:16:32.846Z,24.69
2017-08-07T11:19:00.708Z,24.28
2017-08-07T11:21:30.040Z,24.40
2017-08-07T11:23:57.624Z,23.65
2017-08-07T11:26:26.597Z,23.94
2017-08-07T11:28:55.134Z,24.03
2017-08-07T11:31:23.051Z,24.46
2017-08-07T11:33:50.654Z,24.30
2017-08-07T11:36:18.312Z,24.17
2017-08-07T11:38:45.915Z,24.29
2017-08-07T11:41:14.384Z,24.27
2017-08-07T11:43:42.041Z,24.05
2017-08-07T11:46:10.836Z,24.08
2017-08-07T11:48:38.389Z,24.08
2017-08-07T11:51:06.671Z,24.44
2017-08-07T11:53:34.472Z,23.98
2017-08-07T11:56:03.207Z,23.69
2017-08-07T11:58:30.985Z,23.85
2017-08-07T12:00:58.591Z,24.10
2017-08-07T12:03:26.229Z,24.26
2017-08-07T12:05:54.793Z,27.20
2017-08-07T12:08:24.233Z,28.79
2017-08-07T12:10:52.054Z,28.95
2017-08-07T12:13:19.685Z,29.85
2017-08-07T12:15:47.701Z,30.40
2017-08-07T12:18:17.054Z,30.68
2017-08-07T12:20:44.641Z,30.50
2017-08-07T12:23:14.080Z,30.20
2017-08-07T12:25:42.317Z,30.64
2017-08-07T12:28:10.991Z,30.75
2017-08-07T12:30:38.577Z,30.83
2017-08-07T12:33:07.106Z,30.74
2017-08-07T12:35:34.877Z,31.28
2017-08-07T12:38:02.528Z,31.91
2017-08-07T12:40:30.543Z,31.49
2017-08-07T12:42:58.714Z,31.08
2017-08-07T12:45:26.341Z,31.42
2017-08-07T12:47:54.082Z,31.87
2017-08-07T12:50:22.535Z,32.58
2017-08-07T12:52:50.119Z,33.31
2017-08-07T12:55:17.978Z,33.77
2017-08-07T12:57:45.656Z,34.35
2017-08-07T13:00:13.370Z,34.66
2017-08-07T13:02:40.931Z,35.08
2017-08-07T13:05:08.869Z,35.11
2017-08-07T13:07:38.202Z,35.46
2017-08-07T13:10:05.978Z,35.69
2017-08-07T13:12:33.674Z,36.18
2017-08-07T13:15:01.658Z,36.64
2017-08-07T13:17:29.267Z,37.22
2017-08-07T13:19:56.801Z,39.85
2017-08-07T13:22:24.422Z,40.30
2017-08-07T13:24:52.339Z,42.22
2017-08-07T13:27:20.077Z,46.05
2017-08-07T13:29:47.683Z,48.83
2017-08-07T13:32:15.269Z,50.59
2017-08-07T13:34:45.717Z,50.88
2017-08-07T13:37:13.314Z,52.09
2017-08-07T13:39:40.931Z,52.73
2017-08-07T13:42:08.594Z,52.19
2017-08-07T13:44:36.231Z,53.77
2017-08-07T13:47:04.697Z,55.93
2017-08-07T13:49:32.349Z,59.55
2017-08-07T13:51:59.948Z,63.37
2017-08-07T13:54:27.565Z,66.79
2017-08-07T13:56:55.138Z,65.29
2017-08-07T13:59:22.951Z,65.33
2017-08-07T14:01:50.954Z,65.72
2017-08-07T14:04:19.502Z,65.48
2017-08-07T14:06:47.121Z,67.33
2017-08-07T14:09:14.874Z,65.75
2017-08-07T14:11:42.559Z,65.16
2017-08-07T14:14:10.361Z,64.87
2017-08-07T14:16:38.006Z,65.07
2017-08-07T14:19:06.439Z,63.89
2017-08-07T14:21:34.058Z,62.96
2017-08-07T14:24:01.724Z,62.87
2017-08-07T14:26:29.553Z,63.63
2017-08-07T14:28:57.150Z,63.78
2017-08-07T14:31:24.786Z,62.86
2017-08-07T14:33:52.419Z,61.88
2017-08-07T14:36:19.974Z,60.93
2017-08-07T14:38:47.531Z,61.22
2017-08-07T14:41:15.083Z,60.15
2017-08-07T14:43:42.836Z,59.31
2017-08-07T14:46:10.951Z,60.54
2017-08-07T14:48:38.601Z,60.46
2017-08-07T14:51:06.230Z,60.62
2017-08-07T14:53:35.610Z,62.50
2017-08-07T14:59:43.309Z,63.42
2017-08-07T15:02:12.720Z,62.84
2017-08-07T15:04:40.287Z,63.98
2017-08-07T15:07:07.910Z,64.22
2017-08-07T15:09:35.526Z,65.13
2017-08-07T15:12:03.180Z,62.66
2017-08-07T15:14:30.718Z,64.73
2017-08-07T15:16:58.434Z,66.27
2017-08-07T15:19:28.336Z,65.26
2017-08-07T15:21:57.968Z,63.53
2017-08-07T15:24:25.613Z,63.15
2017-08-07T15:26:53.184Z,63.28
2017-08-07T15:29:20.778Z,59.24
2017-08-07T15:31:48.375Z,60.36
2017-08-07T15:34:16.100Z,60.18
2017-08-07T15:36:43.783Z,59.74
2017-08-07T15:39:11.437Z,59.70
2017-08-07T15:41:39.365Z,60.26
2017-08-07T15:44:07.013Z,59.56
2017-08-07T15:46:34.670Z,59.46
2017-08-07T15:49:03.135Z,59.51
2017-08-07T15:51:30.715Z,59.90
2017-08-07T15:53:58.309Z,59.14
2017-08-07T15:56:25.908Z,59.10
2017-08-07T15:58:53.494Z,58.99
2017-08-07T16:01:21.131Z,57.90
2017-08-07T16:03:48.712Z,57.93
2017-08-07T16:06:16.311Z,56.06
2017-08-07T16:08:43.886Z,56.64
2017-08-07T16:11:11.569Z,55.88
2017-08-07T16:13:39.232Z,56.16
2017-08-07T16:16:06.954Z,55.33
2017-08-07T16:18:34.576Z,54.44
2017-08-07T16:21:02.172Z,54.77
2017-08-07T16:23:31.239Z,54.76
2017-08-07T16:25:58.785Z,54.00
2017-08-07T16:28:26.541Z,54.05
2017-08-07T16:30:54.840Z,53.85
2017-08-07T16:33:22.464Z,54.31
2017-08-07T16:35:50.025Z,55.97
2017-08-07T16:38:17.600Z,56.73
2017-08-07T16:40:45.156Z,56.74
2017-08-07T16:43:12.927Z,56.16
2017-08-07T16:45:41.965Z,56.11
2017-08-07T16:48:10.613Z,55.42
2017-08-07T16:50:40.439Z,56.33
2017-08-07T16:53:08.618Z,56.65
2017-08-07T16:55:38.077Z,56.30
2017-08-07T16:58:05.722Z,55.80
2017-08-07T17:00:33.413Z,55.17
2017-08-07T17:03:00.978Z,55.20
2017-08-07T17:05:28.555Z,54.73
2017-08-07T17:07:56.156Z,53.87
2017-08-07T17:10:23.759Z,54.57
2017-08-07T17:12:51.374Z,54.21
2017-08-07T17:15:19.019Z,54.38
2017-08-07T17:17:47.430Z,54.37
2017-08-07T17:20:15.000Z,54.28
2017-08-07T17:22:42.592Z,53.05
2017-08-07T17:25:10.138Z,54.58
2017-08-07T17:27:37.792Z,53.72
2017-08-07T17:30:08.026Z,53.89
2017-08-07T17:32:35.651Z,54.08
2017-08-07T17:35:03.208Z,54.37
2017-08-07T17:37:30.844Z,54.91
2017-08-07T17:39:58.409Z,55.20
2017-08-07T17:42:26.053Z,55.73
2017-08-07T17:44:54.324Z,55.62
2017-08-07T17:47:22.077Z,56.36
2017-08-07T17:49:49.731Z,56.14
2017-08-07T17:52:17.336Z,55.82
2017-08-07T17:54:44.896Z,55.36
2017-08-07T17:57:12.662Z,55.64
2017-08-07T17:59:41.060Z,56.42
2017-08-07T18:02:08.677Z,56.40
2017-08-07T18:04:36.299Z,56.77
2017-08-07T18:07:03.890Z,57.69
2017-08-07T18:09:31.471Z,58.15
2017-08-07T18:11:59.257Z,58.33
2017-08-07T18:14:27.020Z,57.54
2017-08-07T18:16:54.634Z,57.62
2017-08-07T18:19:22.388Z,57.14
2017-08-07T18:21:49.941Z,56.82
2017-08-07T18:24:17.578Z,56.63
2017-08-07T18:26:45.202Z,56.79
2017-08-07T18:29:12.746Z,56.79
2017-08-07T18:31:40.346Z,56.59
2017-08-07T18:34:07.896Z,56.88
2017-08-07T18:36:35.472Z,57.66
2017-08-07T18:39:03.650Z,57.77
2017-08-07T18:41:31.215Z,57.51
2017-08-07T18:43:58.818Z,57.52
2017-08-07T18:46:26.467Z,57.82
2017-08-07T18:48:54.042Z,57.79
2017-08-07T18:51:21.666Z,57.40
2017-08-07T18:53:49.299Z,57.47
2017-08-07T18:56:16.877Z,57.33
2017-08-07T18:58:44.771Z,56.90
2017-08-07T19:01:12.389Z,57.27
2017-08-07T19:03:40.139Z,57.03
2017-08-07T19:06:07.668Z,56.66
2017-08-07T19:08:35.262Z,57.42
2017-08-07T19:11:02.832Z,58.60
2017-08-07T19:13:30.440Z,58.56
2017-08-07T19:15:58.563Z,57.78
2017-08-07T19:18:26.171Z,57.52
2017-08-07T19:20:53.800Z,57.70
2017-08-07T19:23:21.450Z,57.29
2017-08-07T19:25:48.991Z,57.58
2017-08-07T19:28:16.578Z,57.41
2017-08-07T19:30:44.181Z,57.09
2017-08-07T19:33:11.747Z,57.02
2017-08-07T19:35:39.298Z,56.61
2017-08-07T19:38:06.953Z,56.64
2017-08-07T19:40:34.503Z,57.20
2017-08-07T19:43:02.095Z,57.37
2017-08-07T19:45:31.484Z,57.48
2017-08-07T19:47:59.090Z,57.61
2017-08-07T19:50:26.883Z,58.11
2017-08-07T19:52:55.262Z,58.17
2017-08-07T19:55:23.702Z,58.64
2017-08-07T19:57:51.310Z,58.29
2017-08-07T20:00:18.981Z,58.98
2017-08-07T20:02:46.599Z,58.72
2017-08-07T20:05:15.624Z,58.69
2017-08-07T20:07:43.937Z,58.58
2017-08-07T20:10:11.582Z,58.63
2017-08-07T20:12:39.215Z,58.66
2017-08-07T20:15:06.943Z,58.91
2017-08-07T20:17:34.623Z,58.46
2017-08-07T20:20:02.181Z,58.24
2017-08-07T20:22:29.822Z,58.61
2017-08-07T20:24:57.509Z,58.30
2017-08-07T20:27:29.641Z,58.31
2017-08-07T20:29:57.357Z,58.20
2017-08-07T20:32:24.999Z,58.70
2017-08-07T20:34:52.646Z,58.46
2017-08-07T20:37:20.471Z,58.53
2017-08-07T20:39:48.105Z,58.27
2017-08-07T20:42:15.706Z,58.51
2017-08-07T20:44:43.311Z,58.61
2017-08-07T20:47:24.873Z,58.46
2017-08-07T20:49:52.545Z,58.26
2017-08-07T20:52:20.136Z,58.30
2017-08-07T20:54:47.700Z,58.27
2017-08-07T20:57:15.295Z,58.52
2017-08-07T20:59:42.859Z,58.22
2017-08-07T21:02:10.524Z,58.48
2017-08-07T21:04:38.091Z,58.09
2017-08-07T21:07:05.706Z,58.21
2017-08-07T21:09:33.338Z,58.56
2017-08-07T21:12:00.982Z,58.31
2017-08-07T21:14:28.630Z,58.16
2017-08-07T21:16:56.328Z,58.62
2017-08-07T21:19:25.804Z,58.30
2017-08-07T21:22:04.009Z,58.20
2017-08-07T21:24:31.676Z,58.27
2017-08-07T21:26:59.464Z,58.26
2017-08-07T21:29:30.813Z,58.53
2017-08-07T21:31:58.494Z,58.61
2017-08-07T21:34:26.011Z,58.97
2017-08-07T21:36:53.897Z,58.91
2017-08-07T21:39:21.491Z,58.86
2017-08-07T21:41:49.087Z,58.61
2017-08-07T21:44:16.851Z,58.73
2017-08-07T21:46:44.424Z,58.62
2017-08-07T21:49:13.029Z,58.44
2017-08-07T21:51:40.616Z,58.40
2017-08-07T21:54:08.345Z,59.18
2017-08-07T21:56:35.971Z,59.41
2017-08-07T21:59:04.934Z,59.24
2017-08-07T22:01:33.594Z,59.44
2017-08-07T22:04:01.313Z,59.50
2017-08-07T22:06:30.231Z,59.64
2017-08-07T22:08:59.496Z,59.38
2017-08-07T22:11:28.358Z,59.43
2017-08-07T22:13:56.305Z,59.47
2017-08-07T22:16:24.437Z,59.35
2017-08-07T22:18:52.470Z,59.24
2017-08-07T22:21:22.060Z,60.10
2017-08-07T22:23:49.727Z,59.79
2017-08-07T22:26:18.379Z,60.25
2017-08-07T22:28:47.441Z,60.53
2017-08-07T22:31:14.995Z,59.99
2017-08-07T22:33:42.515Z,60.08
2017-08-07T22:36:10.044Z,59.92
2017-08-07T22:38:37.639Z,59.85
2017-08-07T22:41:05.170Z,59.91
2017-08-07T22:43:32.724Z,60.09
2017-08-07T22:46:00.283Z,60.28
2017-08-07T22:48:27.810Z,60.20
2017-08-07T22:50:55.343Z,60.24
2017-08-07T22:53:22.952Z,60.56
2017-08-07T22:55:50.516Z,60.53
2017-08-07T22:58:18.056Z,60.11
2017-08-07T23:00:45.699Z,60.18
2017-08-07T23:03:13.223Z,60.88
2017-08-07T23:05:40.974Z,60.47
2017-08-07T23:08:08.556Z,60.70
2017-08-07T23:10:36.054Z,60.95
2017-08-07T23:13:03.551Z,60.83
2017-08-07T23:15:31.094Z,61.00
2017-08-07T23:17:58.624Z,60.82
2017-08-07T23:20:26.160Z,61.10
2017-08-07T23:22:53.712Z,61.59
2017-08-07T23:25:21.314Z,61.01
2017-08-07T23:27:48.862Z,60.77
2017-08-07T23:30:16.507Z,60.93
2017-08-07T23:32:44.116Z,61.02
2017-08-07T23:35:11.650Z,61.46
2017-08-07T23:37:39.272Z,61.58
2017-08-07T23:40:06.889Z,61.29
2017-08-07T23:42:34.487Z,61.17
2017-08-07T23:45:02.075Z,61.37
2017-08-07T23:47:29.630Z,61.80
2017-08-07T23:49:57.197Z,61.25
2017-08-07T23:52:24.769Z,61.66
2017-08-07T23:54:52.384Z,61.43
2017-08-07T23:57:19.950Z,61.75
2017-08-07T23:59:47.569Z,61.87
